Overview Statistics Trail Chart Weather Telemetry Raw packets
 

This is the latest recevied weather packets stored in our database for station/object KE6JJJ-1. If no packets are shown the sender has not sent any weather packets the latest 10 day(s).

<< 2 3 4 5 6 7 8 >>
Time Temp. Humidity Pressure Rain* Wind** Luminosity Snow
1788510903 16.67° C 88% 1011.9 hPa 0 mm - 0 W/m² -
1788509103 16.67° C 87% 1011.8 hPa 0 mm - 0 W/m² -
1788505503 16.67° C 88% 1011.7 hPa 0 mm - 0 W/m² -
1788503703 17.22° C 88% 1011.5 hPa 0 mm - 0 W/m² -
1788501903 16.67° C 88% 1011.5 hPa 0 mm - 0 W/m² -
1788500112 17.22° C 88% 1011.8 hPa 0 mm - 0 W/m² -
1788498307 17.22° C 88% 1012.1 hPa 0 mm - 0 W/m² -
1788496503 17.22° C 88% 1012.2 hPa 0 mm - 0 W/m² -
1788494704 17.22° C 88% 1011.8 hPa 0.25 mm - 0 W/m² -
1788492903 17.78° C 87% 1011.7 hPa 0.25 mm - 0 W/m² -
1788491103 17.78° C 86% 1011.4 hPa 0 mm - 0 W/m² -
1788489303 17.78° C 86% 1011.6 hPa 0 mm - 0 W/m² -
1788487504 18.33° C 85% 1011.5 hPa 0 mm - 19 W/m² -
1788485703 19.44° C 83% 1011.7 hPa 0 mm - 39 W/m² -
1788483904 20.56° C 81% 1011.7 hPa 0 mm - 77 W/m² -
1788482103 21.11° C 80% 1011.5 hPa 0 mm - 169 W/m² -
1788480303 22.22° C 76% 1011.8 hPa 0 mm - 301 W/m² -
1788478503 22.78° C 72% 1012 hPa 0 mm - 443 W/m² -
1788476704 22.22° C 73% 1012.3 hPa 0 mm - 352 W/m² -
1788474946 23.33° C 71% 1012.5 hPa 0 mm - 438 W/m² -
1788474903 23.33° C 71% 1012.5 hPa 0 mm - 438 W/m² -
1788473103 23.33° C 72% 1013.1 hPa 0 mm - 902 W/m² -
1788471305 22.22° C 74% 1013.2 hPa 0 mm - 406 W/m² -
1788469503 22.22° C 72% 1013.6 hPa 0 mm - 348 W/m² -
1788467703 22.22° C 72% 1013.5 hPa 0 mm - 404 W/m² -

* Rain latest hour (hover to see other rain measurements)
** Current wind speed in m/s (hover to see current wind gust speed)